sensor_id;sensor_type;location;lat;lon;timestamp;P1;durP1;ratioP1;P2;durP2;ratioP2
20336;SDS011;10326;53.660;10.200;2022-08-11T00:00:32;3.25;;;1.90;;
20336;SDS011;10326;53.660;10.200;2022-08-11T00:03:04;2.47;;;1.98;;
20336;SDS011;10326;53.660;10.200;2022-08-11T00:05:37;2.10;;;1.90;;
20336;SDS011;10326;53.660;10.200;2022-08-11T00:08:17;3.45;;;2.10;;
20336;SDS011;10326;53.660;10.200;2022-08-11T00:10:50;2.90;;;1.75;;
20336;SDS011;10326;53.660;10.200;2022-08-11T00:13:20;2.38;;;2.10;;
20336;SDS011;10326;53.660;10.200;2022-08-11T00:15:59;3.30;;;2.15;;
20336;SDS011;10326;53.660;10.200;2022-08-11T00:18:27;3.00;;;2.38;;
20336;SDS011;10326;53.660;10.200;2022-08-11T00:20:57;2.83;;;2.08;;
20336;SDS011;10326;53.660;10.200;2022-08-11T00:23:25;3.53;;;1.77;;
20336;SDS011;10326;53.660;10.200;2022-08-11T00:25:53;2.10;;;1.92;;
20336;SDS011;10326;53.660;10.200;2022-08-11T00:28:23;4.00;;;2.50;;
20336;SDS011;10326;53.660;10.200;2022-08-11T00:30:53;2.17;;;2.00;;
20336;SDS011;10326;53.660;10.200;2022-08-11T00:33:33;2.85;;;2.33;;
20336;SDS011;10326;53.660;10.200;2022-08-11T00:36:04;2.25;;;2.08;;
20336;SDS011;10326;53.660;10.200;2022-08-11T00:38:35;2.67;;;2.10;;
20336;SDS011;10326;53.660;10.200;2022-08-11T00:41:08;2.38;;;1.70;;
20336;SDS011;10326;53.660;10.200;2022-08-11T00:43:50;11.00;;;2.58;;
20336;SDS011;10326;53.660;10.200;2022-08-11T00:47:01;3.20;;;2.05;;
20336;SDS011;10326;53.660;10.200;2022-08-11T00:50:03;3.10;;;2.00;;
20336;SDS011;10326;53.660;10.200;2022-08-11T00:52:46;2.20;;;2.00;;
20336;SDS011;10326;53.660;10.200;2022-08-11T00:55:55;2.53;;;2.33;;
20336;SDS011;10326;53.660;10.200;2022-08-11T01:02:22;2.30;;;2.10;;
20336;SDS011;10326;53.660;10.200;2022-08-11T01:05:15;2.20;;;2.00;;
20336;SDS011;10326;53.660;10.200;2022-08-11T01:18:18;2.22;;;2.03;;
20336;SDS011;10326;53.660;10.200;2022-08-11T01:21:31;2.50;;;1.95;;
20336;SDS011;10326;53.660;10.200;2022-08-11T01:28:19;1.85;;;1.67;;
20336;SDS011;10326;53.660;10.200;2022-08-11T01:35:20;2.45;;;2.10;;
20336;SDS011;10326;53.660;10.200;2022-08-11T01:41:30;2.55;;;2.35;;
20336;SDS011;10326;53.660;10.200;2022-08-11T01:44:48;2.55;;;2.13;;
20336;SDS011;10326;53.660;10.200;2022-08-11T01:47:41;2.40;;;2.13;;
20336;SDS011;10326;53.660;10.200;2022-08-11T01:50:19;3.35;;;2.42;;
20336;SDS011;10326;53.660;10.200;2022-08-11T01:53:04;2.28;;;2.00;;
20336;SDS011;10326;53.660;10.200;2022-08-11T01:55:46;2.40;;;2.20;;
20336;SDS011;10326;53.660;10.200;2022-08-11T01:58:24;3.38;;;2.30;;
20336;SDS011;10326;53.660;10.200;2022-08-11T02:01:01;3.40;;;2.30;;
20336;SDS011;10326;53.660;10.200;2022-08-11T02:03:42;2.40;;;2.20;;
20336;SDS011;10326;53.660;10.200;2022-08-11T02:06:21;2.42;;;2.20;;
20336;SDS011;10326;53.660;10.200;2022-08-11T02:09:16;2.05;;;1.85;;
20336;SDS011;10326;53.660;10.200;2022-08-11T02:11:57;2.25;;;2.05;;
20336;SDS011;10326;53.660;10.200;2022-08-11T02:14:42;2.60;;;2.38;;
20336;SDS011;10326;53.660;10.200;2022-08-11T02:17:22;3.22;;;2.10;;
20336;SDS011;10326;53.660;10.200;2022-08-11T02:20:13;2.30;;;2.10;;
20336;SDS011;10326;53.660;10.200;2022-08-11T02:23:05;3.47;;;2.40;;
20336;SDS011;10326;53.660;10.200;2022-08-11T02:26:07;2.22;;;2.10;;
20336;SDS011;10326;53.660;10.200;2022-08-11T02:31:45;2.67;;;2.47;;
20336;SDS011;10326;53.660;10.200;2022-08-11T02:34:41;2.67;;;2.47;;
20336;SDS011;10326;53.660;10.200;2022-08-11T02:37:16;3.67;;;2.60;;
20336;SDS011;10326;53.660;10.200;2022-08-11T02:40:05;2.40;;;2.20;;
20336;SDS011;10326;53.660;10.200;2022-08-11T02:42:52;2.20;;;2.00;;
20336;SDS011;10326;53.660;10.200;2022-08-11T02:45:38;4.03;;;2.20;;
20336;SDS011;10326;53.660;10.200;2022-08-11T02:48:37;2.35;;;2.15;;
20336;SDS011;10326;53.660;10.200;2022-08-11T02:51:35;2.60;;;2.40;;
20336;SDS011;10326;53.660;10.200;2022-08-11T02:54:13;2.75;;;2.50;;
20336;SDS011;10326;53.660;10.200;2022-08-11T02:56:51;2.58;;;2.10;;
20336;SDS011;10326;53.660;10.200;2022-08-11T02:59:42;2.30;;;2.10;;
20336;SDS011;10326;53.660;10.200;2022-08-11T03:05:24;2.35;;;2.08;;
20336;SDS011;10326;53.660;10.200;2022-08-11T03:08:18;2.40;;;1.95;;
20336;SDS011;10326;53.660;10.200;2022-08-11T03:11:04;2.25;;;2.03;;
20336;SDS011;10326;53.660;10.200;2022-08-11T03:14:08;4.15;;;2.40;;
20336;SDS011;10326;53.660;10.200;2022-08-11T03:16:59;2.60;;;2.40;;
20336;SDS011;10326;53.660;10.200;2022-08-11T03:19:45;3.53;;;2.25;;
20336;SDS011;10326;53.660;10.200;2022-08-11T03:22:21;2.47;;;2.28;;
20336;SDS011;10326;53.660;10.200;2022-08-11T03:25:00;2.53;;;2.10;;
20336;SDS011;10326;53.660;10.200;2022-08-11T03:27:44;2.20;;;2.10;;
20336;SDS011;10326;53.660;10.200;2022-08-11T03:30:18;2.63;;;2.30;;
20336;SDS011;10326;53.660;10.200;2022-08-11T03:33:03;5.75;;;2.65;;
20336;SDS011;10326;53.660;10.200;2022-08-11T03:36:06;2.67;;;2.47;;
20336;SDS011;10326;53.660;10.200;2022-08-11T03:38:51;2.75;;;2.55;;
20336;SDS011;10326;53.660;10.200;2022-08-11T03:41:33;3.47;;;2.15;;
20336;SDS011;10326;53.660;10.200;2022-08-11T03:44:17;2.95;;;2.20;;
20336;SDS011;10326;53.660;10.200;2022-08-11T03:47:21;2.65;;;2.08;;
20336;SDS011;10326;53.660;10.200;2022-08-11T03:50:04;2.55;;;2.35;;
20336;SDS011;10326;53.660;10.200;2022-08-11T03:52:47;3.90;;;2.65;;
20336;SDS011;10326;53.660;10.200;2022-08-11T03:55:22;2.60;;;2.40;;
20336;SDS011;10326;53.660;10.200;2022-08-11T04:01:30;2.97;;;2.67;;
20336;SDS011;10326;53.660;10.200;2022-08-11T04:04:35;2.78;;;2.58;;
20336;SDS011;10326;53.660;10.200;2022-08-11T04:07:54;3.00;;;2.65;;
20336;SDS011;10326;53.660;10.200;2022-08-11T04:23:40;2.50;;;2.30;;
20336;SDS011;10326;53.660;10.200;2022-08-11T04:29:49;5.72;;;2.42;;
20336;SDS011;10326;53.660;10.200;2022-08-11T04:32:41;3.13;;;2.15;;
20336;SDS011;10326;53.660;10.200;2022-08-11T04:35:47;2.65;;;2.45;;
20336;SDS011;10326;53.660;10.200;2022-08-11T04:38:48;3.03;;;2.20;;
20336;SDS011;10326;53.660;10.200;2022-08-11T04:45:39;3.30;;;2.60;;
20336;SDS011;10326;53.660;10.200;2022-08-11T04:48:38;2.95;;;2.65;;
20336;SDS011;10326;53.660;10.200;2022-08-11T04:52:06;3.67;;;3.13;;
20336;SDS011;10326;53.660;10.200;2022-08-11T04:55:39;2.72;;;2.38;;
20336;SDS011;10326;53.660;10.200;2022-08-11T04:59:12;3.40;;;2.47;;
20336;SDS011;10326;53.660;10.200;2022-08-11T05:05:45;2.85;;;2.65;;
20336;SDS011;10326;53.660;10.200;2022-08-11T05:15:11;4.97;;;2.95;;
20336;SDS011;10326;53.660;10.200;2022-08-11T05:18:01;3.88;;;3.50;;
20336;SDS011;10326;53.660;10.200;2022-08-11T05:20:53;5.25;;;2.83;;
20336;SDS011;10326;53.660;10.200;2022-08-11T05:23:40;4.85;;;3.50;;
20336;SDS011;10326;53.660;10.200;2022-08-11T05:26:38;3.83;;;3.03;;
20336;SDS011;10326;53.660;10.200;2022-08-11T05:32:34;4.35;;;2.90;;
20336;SDS011;10326;53.660;10.200;2022-08-11T05:35:25;9.50;;;3.75;;
20336;SDS011;10326;53.660;10.200;2022-08-11T05:37:57;3.75;;;3.22;;
20336;SDS011;10326;53.660;10.200;2022-08-11T05:40:46;6.55;;;3.10;;
20336;SDS011;10326;53.660;10.200;2022-08-11T05:43:33;3.45;;;3.15;;
20336;SDS011;10326;53.660;10.200;2022-08-11T05:46:27;4.47;;;3.20;;
20336;SDS011;10326;53.660;10.200;2022-08-11T05:49:12;4.40;;;3.13;;
20336;SDS011;10326;53.660;10.200;2022-08-11T05:51:58;4.10;;;2.75;;
20336;SDS011;10326;53.660;10.200;2022-08-11T05:54:46;4.10;;;3.20;;
20336;SDS011;10326;53.660;10.200;2022-08-11T05:57:34;5.13;;;3.03;;
20336;SDS011;10326;53.660;10.200;2022-08-11T06:00:04;8.85;;;3.08;;
20336;SDS011;10326;53.660;10.200;2022-08-11T06:02:40;8.88;;;3.22;;
20336;SDS011;10326;53.660;10.200;2022-08-11T06:05:09;6.65;;;3.00;;
20336;SDS011;10326;53.660;10.200;2022-08-11T06:07:38;6.18;;;3.47;;
20336;SDS011;10326;53.660;10.200;2022-08-11T06:10:06;8.13;;;3.13;;
20336;SDS011;10326;53.660;10.200;2022-08-11T06:12:35;2.83;;;2.60;;
20336;SDS011;10326;53.660;10.200;2022-08-11T06:15:05;3.55;;;3.25;;
20336;SDS011;10326;53.660;10.200;2022-08-11T06:17:42;3.53;;;2.38;;
20336;SDS011;10326;53.660;10.200;2022-08-11T06:20:12;4.22;;;2.72;;
20336;SDS011;10326;53.660;10.200;2022-08-11T06:22:43;3.83;;;2.92;;
20336;SDS011;10326;53.660;10.200;2022-08-11T06:25:12;3.10;;;2.53;;
20336;SDS011;10326;53.660;10.200;2022-08-11T06:27:40;2.70;;;2.50;;
20336;SDS011;10326;53.660;10.200;2022-08-11T06:30:10;2.88;;;2.50;;
20336;SDS011;10326;53.660;10.200;2022-08-11T06:32:40;3.13;;;2.80;;
20336;SDS011;10326;53.660;10.200;2022-08-11T06:35:16;4.80;;;3.05;;
20336;SDS011;10326;53.660;10.200;2022-08-11T06:38:04;2.70;;;2.50;;
20336;SDS011;10326;53.660;10.200;2022-08-11T06:40:37;2.58;;;2.38;;
20336;SDS011;10326;53.660;10.200;2022-08-11T06:43:35;2.92;;;2.25;;
20336;SDS011;10326;53.660;10.200;2022-08-11T06:46:16;3.17;;;2.53;;
20336;SDS011;10326;53.660;10.200;2022-08-11T06:48:53;2.38;;;2.17;;
20336;SDS011;10326;53.660;10.200;2022-08-11T06:51:21;3.38;;;2.63;;
20336;SDS011;10326;53.660;10.200;2022-08-11T06:53:48;3.25;;;2.45;;
20336;SDS011;10326;53.660;10.200;2022-08-11T06:56:20;2.90;;;2.60;;
20336;SDS011;10326;53.660;10.200;2022-08-11T06:59:09;2.50;;;2.30;;
20336;SDS011;10326;53.660;10.200;2022-08-11T07:01:56;3.30;;;2.70;;
20336;SDS011;10326;53.660;10.200;2022-08-11T07:04:35;3.83;;;2.30;;
20336;SDS011;10326;53.660;10.200;2022-08-11T07:07:17;3.60;;;2.90;;
20336;SDS011;10326;53.660;10.200;2022-08-11T07:11:00;2.17;;;2.08;;
20336;SDS011;10326;53.660;10.200;2022-08-11T07:14:24;3.08;;;2.40;;
20336;SDS011;10326;53.660;10.200;2022-08-11T07:17:12;2.28;;;2.08;;
20336;SDS011;10326;53.660;10.200;2022-08-11T07:19:46;3.95;;;2.50;;
20336;SDS011;10326;53.660;10.200;2022-08-11T07:22:36;2.50;;;2.30;;
20336;SDS011;10326;53.660;10.200;2022-08-11T07:25:22;2.80;;;2.50;;
20336;SDS011;10326;53.660;10.200;2022-08-11T07:28:09;3.72;;;3.13;;
20336;SDS011;10326;53.660;10.200;2022-08-11T07:31:08;2.60;;;2.40;;
20336;SDS011;10326;53.660;10.200;2022-08-11T07:33:39;4.55;;;2.65;;
20336;SDS011;10326;53.660;10.200;2022-08-11T07:36:13;2.30;;;2.10;;
20336;SDS011;10326;53.660;10.200;2022-08-11T07:38:43;2.65;;;2.40;;
20336;SDS011;10326;53.660;10.200;2022-08-11T07:41:15;2.92;;;2.20;;
20336;SDS011;10326;53.660;10.200;2022-08-11T07:43:45;2.65;;;2.13;;
20336;SDS011;10326;53.660;10.200;2022-08-11T07:46:17;2.35;;;2.15;;
20336;SDS011;10326;53.660;10.200;2022-08-11T07:49:03;3.35;;;2.20;;
20336;SDS011;10326;53.660;10.200;2022-08-11T07:51:53;3.33;;;2.20;;
20336;SDS011;10326;53.660;10.200;2022-08-11T07:54:39;3.22;;;2.13;;
20336;SDS011;10326;53.660;10.200;2022-08-11T07:57:08;2.90;;;2.20;;
20336;SDS011;10326;53.660;10.200;2022-08-11T07:59:53;2.67;;;2.47;;
20336;SDS011;10326;53.660;10.200;2022-08-11T08:02:41;2.63;;;2.22;;
20336;SDS011;10326;53.660;10.200;2022-08-11T08:05:27;2.42;;;2.22;;
20336;SDS011;10326;53.660;10.200;2022-08-11T08:08:14;2.75;;;2.28;;
20336;SDS011;10326;53.660;10.200;2022-08-11T08:11:00;2.33;;;2.13;;
20336;SDS011;10326;53.660;10.200;2022-08-11T08:13:45;2.90;;;2.58;;
20336;SDS011;10326;53.660;10.200;2022-08-11T08:16:30;4.70;;;2.20;;
20336;SDS011;10326;53.660;10.200;2022-08-11T08:19:17;2.83;;;2.28;;
20336;SDS011;10326;53.660;10.200;2022-08-11T08:21:48;2.30;;;1.90;;
20336;SDS011;10326;53.660;10.200;2022-08-11T08:24:18;2.65;;;2.45;;
20336;SDS011;10326;53.660;10.200;2022-08-11T08:26:47;4.53;;;1.98;;
20336;SDS011;10326;53.660;10.200;2022-08-11T08:29:25;3.85;;;2.30;;
20336;SDS011;10326;53.660;10.200;2022-08-11T08:32:14;4.38;;;2.33;;
20336;SDS011;10326;53.660;10.200;2022-08-11T08:34:43;2.33;;;2.20;;
20336;SDS011;10326;53.660;10.200;2022-08-11T08:37:11;2.30;;;2.10;;
20336;SDS011;10326;53.660;10.200;2022-08-11T08:39:41;3.35;;;2.30;;
20336;SDS011;10326;53.660;10.200;2022-08-11T08:42:11;2.47;;;2.25;;
20336;SDS011;10326;53.660;10.200;2022-08-11T08:44:44;2.50;;;2.30;;
20336;SDS011;10326;53.660;10.200;2022-08-11T08:47:17;2.40;;;2.22;;
20336;SDS011;10326;53.660;10.200;2022-08-11T08:49:49;2.95;;;2.22;;
20336;SDS011;10326;53.660;10.200;2022-08-11T08:52:25;2.60;;;2.40;;
20336;SDS011;10326;53.660;10.200;2022-08-11T08:55:03;2.42;;;2.22;;
20336;SDS011;10326;53.660;10.200;2022-08-11T08:57:35;2.38;;;2.17;;
20336;SDS011;10326;53.660;10.200;2022-08-11T09:00:03;2.60;;;2.20;;
20336;SDS011;10326;53.660;10.200;2022-08-11T09:02:32;2.55;;;2.35;;
20336;SDS011;10326;53.660;10.200;2022-08-11T09:05:00;2.50;;;2.30;;
20336;SDS011;10326;53.660;10.200;2022-08-11T09:07:29;2.10;;;1.90;;
20336;SDS011;10326;53.660;10.200;2022-08-11T09:09:58;2.05;;;1.95;;
20336;SDS011;10326;53.660;10.200;2022-08-11T09:12:29;2.53;;;2.10;;
20336;SDS011;10326;53.660;10.200;2022-08-11T09:14:58;3.03;;;2.03;;
20336;SDS011;10326;53.660;10.200;2022-08-11T09:17:30;3.35;;;1.92;;
20336;SDS011;10326;53.660;10.200;2022-08-11T09:20:03;3.05;;;1.98;;
20336;SDS011;10326;53.660;10.200;2022-08-11T09:22:34;4.13;;;2.03;;
20336;SDS011;10326;53.660;10.200;2022-08-11T09:25:23;1.88;;;1.70;;
20336;SDS011;10326;53.660;10.200;2022-08-11T09:28:12;1.58;;;1.35;;
20336;SDS011;10326;53.660;10.200;2022-08-11T09:30:43;1.83;;;1.60;;
20336;SDS011;10326;53.660;10.200;2022-08-11T09:33:14;2.97;;;1.77;;
20336;SDS011;10326;53.660;10.200;2022-08-11T09:35:42;2.42;;;1.65;;
20336;SDS011;10326;53.660;10.200;2022-08-11T09:38:13;2.15;;;1.63;;
20336;SDS011;10326;53.660;10.200;2022-08-11T09:41:00;1.98;;;1.80;;
20336;SDS011;10326;53.660;10.200;2022-08-11T09:43:32;1.92;;;1.65;;
20336;SDS011;10326;53.660;10.200;2022-08-11T09:46:31;2.05;;;1.85;;
20336;SDS011;10326;53.660;10.200;2022-08-11T09:48:59;3.20;;;1.63;;
20336;SDS011;10326;53.660;10.200;2022-08-11T09:51:28;1.80;;;1.70;;
20336;SDS011;10326;53.660;10.200;2022-08-11T09:53:58;3.75;;;2.10;;
20336;SDS011;10326;53.660;10.200;2022-08-11T09:56:30;3.13;;;2.72;;
20336;SDS011;10326;53.660;10.200;2022-08-11T09:59:19;5.47;;;3.38;;
20336;SDS011;10326;53.660;10.200;2022-08-11T10:01:48;3.28;;;2.85;;
20336;SDS011;10326;53.660;10.200;2022-08-11T10:04:22;4.60;;;4.20;;
20336;SDS011;10326;53.660;10.200;2022-08-11T10:06:56;5.13;;;4.70;;
20336;SDS011;10326;53.660;10.200;2022-08-11T10:09:27;4.63;;;3.65;;
20336;SDS011;10326;53.660;10.200;2022-08-11T10:12:01;3.17;;;2.90;;
20336;SDS011;10326;53.660;10.200;2022-08-11T10:14:36;4.38;;;2.58;;
20336;SDS011;10326;53.660;10.200;2022-08-11T10:17:27;2.72;;;2.30;;
20336;SDS011;10326;53.660;10.200;2022-08-11T10:19:58;1.85;;;1.65;;
20336;SDS011;10326;53.660;10.200;2022-08-11T10:22:28;2.00;;;1.70;;
20336;SDS011;10326;53.660;10.200;2022-08-11T10:25:19;1.70;;;1.48;;
20336;SDS011;10326;53.660;10.200;2022-08-11T10:28:06;1.70;;;1.60;;
20336;SDS011;10326;53.660;10.200;2022-08-11T10:30:36;1.30;;;1.20;;
20336;SDS011;10326;53.660;10.200;2022-08-11T10:33:21;1.98;;;1.60;;
20336;SDS011;10326;53.660;10.200;2022-08-11T10:36:06;1.52;;;1.42;;
20336;SDS011;10326;53.660;10.200;2022-08-11T10:38:34;2.22;;;1.52;;
20336;SDS011;10326;53.660;10.200;2022-08-11T10:41:02;2.22;;;1.48;;
20336;SDS011;10326;53.660;10.200;2022-08-11T10:43:48;2.58;;;1.60;;
20336;SDS011;10326;53.660;10.200;2022-08-11T10:46:19;2.13;;;1.40;;
20336;SDS011;10326;53.660;10.200;2022-08-11T10:49:05;1.30;;;1.20;;
20336;SDS011;10326;53.660;10.200;2022-08-11T10:51:33;1.50;;;1.40;;
20336;SDS011;10326;53.660;10.200;2022-08-11T10:54:19;1.38;;;1.27;;
20336;SDS011;10326;53.660;10.200;2022-08-11T10:57:04;1.25;;;1.20;;
20336;SDS011;10326;53.660;10.200;2022-08-11T10:59:49;1.23;;;1.05;;
20336;SDS011;10326;53.660;10.200;2022-08-11T11:02:20;1.40;;;1.30;;
20336;SDS011;10326;53.660;10.200;2022-08-11T11:04:56;1.90;;;1.42;;
20336;SDS011;10326;53.660;10.200;2022-08-11T11:07:35;1.40;;;1.30;;
20336;SDS011;10326;53.660;10.200;2022-08-11T11:10:06;1.75;;;1.40;;
20336;SDS011;10326;53.660;10.200;2022-08-11T11:12:35;1.40;;;1.30;;
20336;SDS011;10326;53.660;10.200;2022-08-11T11:15:27;2.88;;;1.30;;
20336;SDS011;10326;53.660;10.200;2022-08-11T11:18:17;2.15;;;1.25;;
20336;SDS011;10326;53.660;10.200;2022-08-11T11:20:49;1.10;;;1.00;;
20336;SDS011;10326;53.660;10.200;2022-08-11T11:23:22;2.17;;;1.38;;
20336;SDS011;10326;53.660;10.200;2022-08-11T11:25:59;2.65;;;1.27;;
20336;SDS011;10326;53.660;10.200;2022-08-11T11:28:57;1.95;;;1.30;;
20336;SDS011;10326;53.660;10.200;2022-08-11T11:32:16;1.35;;;1.00;;
20336;SDS011;10326;53.660;10.200;2022-08-11T11:34:57;1.17;;;0.95;;
20336;SDS011;10326;53.660;10.200;2022-08-11T11:37:55;1.50;;;1.10;;
20336;SDS011;10326;53.660;10.200;2022-08-11T11:40:23;2.85;;;1.33;;
20336;SDS011;10326;53.660;10.200;2022-08-11T11:42:52;2.38;;;1.38;;
20336;SDS011;10326;53.660;10.200;2022-08-11T11:45:22;2.30;;;1.20;;
20336;SDS011;10326;53.660;10.200;2022-08-11T11:47:51;1.23;;;1.13;;
20336;SDS011;10326;53.660;10.200;2022-08-11T11:50:26;2.53;;;1.20;;
20336;SDS011;10326;53.660;10.200;2022-08-11T11:52:55;1.77;;;1.40;;
20336;SDS011;10326;53.660;10.200;2022-08-11T11:55:26;1.98;;;1.35;;
20336;SDS011;10326;53.660;10.200;2022-08-11T11:57:55;2.13;;;1.35;;
20336;SDS011;10326;53.660;10.200;2022-08-11T12:00:45;1.70;;;1.00;;
20336;SDS011;10326;53.660;10.200;2022-08-11T12:03:31;1.23;;;1.13;;
20336;SDS011;10326;53.660;10.200;2022-08-11T12:06:03;1.15;;;1.05;;
20336;SDS011;10326;53.660;10.200;2022-08-11T12:08:32;1.40;;;1.30;;
20336;SDS011;10326;53.660;10.200;2022-08-11T12:11:02;1.25;;;1.02;;
20336;SDS011;10326;53.660;10.200;2022-08-11T12:13:50;1.23;;;1.13;;
20336;SDS011;10326;53.660;10.200;2022-08-11T12:16:19;1.25;;;1.15;;
20336;SDS011;10326;53.660;10.200;2022-08-11T12:18:48;3.65;;;1.20;;
20336;SDS011;10326;53.660;10.200;2022-08-11T12:21:20;1.98;;;1.20;;
20336;SDS011;10326;53.660;10.200;2022-08-11T12:23:49;1.40;;;1.13;;
20336;SDS011;10326;53.660;10.200;2022-08-11T12:26:35;1.98;;;1.15;;
20336;SDS011;10326;53.660;10.200;2022-08-11T12:29:19;1.63;;;1.30;;
20336;SDS011;10326;53.660;10.200;2022-08-11T12:31:51;2.42;;;1.30;;
20336;SDS011;10326;53.660;10.200;2022-08-11T12:34:19;1.67;;;1.00;;
20336;SDS011;10326;53.660;10.200;2022-08-11T12:36:50;1.55;;;1.00;;
20336;SDS011;10326;53.660;10.200;2022-08-11T12:39:24;1.92;;;1.10;;
20336;SDS011;10326;53.660;10.200;2022-08-11T12:42:08;1.33;;;1.20;;
20336;SDS011;10326;53.660;10.200;2022-08-11T12:44:55;2.00;;;1.00;;
20336;SDS011;10326;53.660;10.200;2022-08-11T12:47:42;1.55;;;1.35;;
20336;SDS011;10326;53.660;10.200;2022-08-11T12:50:32;2.35;;;1.00;;
20336;SDS011;10326;53.660;10.200;2022-08-11T12:53:19;1.52;;;1.10;;
20336;SDS011;10326;53.660;10.200;2022-08-11T12:55:52;2.10;;;1.20;;
20336;SDS011;10326;53.660;10.200;2022-08-11T12:58:40;1.88;;;1.15;;
20336;SDS011;10326;53.660;10.200;2022-08-11T13:01:08;3.10;;;1.30;;
20336;SDS011;10326;53.660;10.200;2022-08-11T13:03:54;1.20;;;1.05;;
20336;SDS011;10326;53.660;10.200;2022-08-11T13:06:39;2.22;;;1.20;;
20336;SDS011;10326;53.660;10.200;2022-08-11T13:09:09;1.85;;;1.42;;
20336;SDS011;10326;53.660;10.200;2022-08-11T13:11:37;1.20;;;1.10;;
20336;SDS011;10326;53.660;10.200;2022-08-11T13:14:23;2.13;;;1.33;;
20336;SDS011;10326;53.660;10.200;2022-08-11T13:16:51;1.65;;;1.15;;
20336;SDS011;10326;53.660;10.200;2022-08-11T13:19:37;2.55;;;1.17;;
20336;SDS011;10326;53.660;10.200;2022-08-11T13:22:07;1.13;;;0.98;;
20336;SDS011;10326;53.660;10.200;2022-08-11T13:24:38;3.38;;;1.00;;
20336;SDS011;10326;53.660;10.200;2022-08-11T13:27:06;1.20;;;1.10;;
20336;SDS011;10326;53.660;10.200;2022-08-11T13:29:36;2.42;;;1.40;;
20336;SDS011;10326;53.660;10.200;2022-08-11T13:32:07;3.80;;;1.30;;
20336;SDS011;10326;53.660;10.200;2022-08-11T13:34:35;2.05;;;1.05;;
20336;SDS011;10326;53.660;10.200;2022-08-11T13:37:06;2.13;;;1.15;;
20336;SDS011;10326;53.660;10.200;2022-08-11T13:39:39;2.72;;;1.10;;
20336;SDS011;10326;53.660;10.200;2022-08-11T13:42:11;1.23;;;1.00;;
20336;SDS011;10326;53.660;10.200;2022-08-11T13:44:44;2.30;;;1.27;;
20336;SDS011;10326;53.660;10.200;2022-08-11T13:47:12;2.92;;;1.20;;
20336;SDS011;10326;53.660;10.200;2022-08-11T13:49:41;2.05;;;1.00;;
20336;SDS011;10326;53.660;10.200;2022-08-11T13:52:10;1.63;;;1.05;;
20336;SDS011;10326;53.660;10.200;2022-08-11T13:54:41;3.08;;;1.20;;
20336;SDS011;10326;53.660;10.200;2022-08-11T13:57:12;2.33;;;1.02;;
20336;SDS011;10326;53.660;10.200;2022-08-11T13:59:43;1.55;;;1.10;;
20336;SDS011;10326;53.660;10.200;2022-08-11T14:02:13;1.15;;;1.00;;
20336;SDS011;10326;53.660;10.200;2022-08-11T14:04:43;3.33;;;1.40;;
20336;SDS011;10326;53.660;10.200;2022-08-11T14:07:20;1.15;;;1.10;;
20336;SDS011;10326;53.660;10.200;2022-08-11T14:09:54;2.40;;;1.25;;
20336;SDS011;10326;53.660;10.200;2022-08-11T14:12:24;2.20;;;1.30;;
20336;SDS011;10326;53.660;10.200;2022-08-11T14:15:13;2.65;;;1.27;;
20336;SDS011;10326;53.660;10.200;2022-08-11T14:17:45;2.53;;;1.25;;
20336;SDS011;10326;53.660;10.200;2022-08-11T14:20:18;1.50;;;1.20;;
20336;SDS011;10326;53.660;10.200;2022-08-11T14:22:46;2.03;;;1.30;;
20336;SDS011;10326;53.660;10.200;2022-08-11T14:25:17;3.22;;;1.40;;
20336;SDS011;10326;53.660;10.200;2022-08-11T14:27:44;2.15;;;1.40;;
20336;SDS011;10326;53.660;10.200;2022-08-11T14:30:14;3.53;;;1.23;;
20336;SDS011;10326;53.660;10.200;2022-08-11T14:32:55;1.98;;;1.13;;
20336;SDS011;10326;53.660;10.200;2022-08-11T14:35:23;3.00;;;1.30;;
20336;SDS011;10326;53.660;10.200;2022-08-11T14:37:52;2.10;;;1.15;;
20336;SDS011;10326;53.660;10.200;2022-08-11T14:40:22;1.30;;;1.20;;
20336;SDS011;10326;53.660;10.200;2022-08-11T14:43:07;1.63;;;1.20;;
20336;SDS011;10326;53.660;10.200;2022-08-11T14:45:52;1.40;;;1.10;;
20336;SDS011;10326;53.660;10.200;2022-08-11T14:48:40;1.75;;;1.10;;
20336;SDS011;10326;53.660;10.200;2022-08-11T14:51:07;1.88;;;1.10;;
20336;SDS011;10326;53.660;10.200;2022-08-11T14:53:35;2.47;;;1.20;;
20336;SDS011;10326;53.660;10.200;2022-08-11T14:56:04;2.58;;;1.15;;
20336;SDS011;10326;53.660;10.200;2022-08-11T14:58:48;2.38;;;1.20;;
20336;SDS011;10326;53.660;10.200;2022-08-11T15:01:16;2.22;;;1.13;;
20336;SDS011;10326;53.660;10.200;2022-08-11T15:04:01;2.80;;;1.40;;
20336;SDS011;10326;53.660;10.200;2022-08-11T15:06:29;3.13;;;1.25;;
20336;SDS011;10326;53.660;10.200;2022-08-11T15:08:57;2.08;;;1.13;;
20336;SDS011;10326;53.660;10.200;2022-08-11T15:11:27;1.95;;;1.20;;
20336;SDS011;10326;53.660;10.200;2022-08-11T15:14:13;2.63;;;1.48;;
20336;SDS011;10326;53.660;10.200;2022-08-11T15:17:02;1.50;;;1.27;;
20336;SDS011;10326;53.660;10.200;2022-08-11T15:19:34;2.72;;;1.17;;
20336;SDS011;10326;53.660;10.200;2022-08-11T15:22:24;1.58;;;1.27;;
20336;SDS011;10326;53.660;10.200;2022-08-11T15:25:09;1.33;;;1.23;;
20336;SDS011;10326;53.660;10.200;2022-08-11T15:27:38;2.53;;;1.35;;
20336;SDS011;10326;53.660;10.200;2022-08-11T15:30:25;1.30;;;1.15;;
20336;SDS011;10326;53.660;10.200;2022-08-11T15:33:12;3.85;;;1.10;;
20336;SDS011;10326;53.660;10.200;2022-08-11T15:35:59;3.92;;;1.35;;
20336;SDS011;10326;53.660;10.200;2022-08-11T15:38:50;4.63;;;1.35;;
20336;SDS011;10326;53.660;10.200;2022-08-11T15:41:25;2.33;;;1.20;;
20336;SDS011;10326;53.660;10.200;2022-08-11T15:44:23;1.73;;;1.35;;
20336;SDS011;10326;53.660;10.200;2022-08-11T15:47:28;2.05;;;1.35;;
20336;SDS011;10326;53.660;10.200;2022-08-11T15:50:03;2.30;;;1.25;;
20336;SDS011;10326;53.660;10.200;2022-08-11T15:52:33;2.28;;;1.33;;
20336;SDS011;10326;53.660;10.200;2022-08-11T15:55:10;1.40;;;1.30;;
20336;SDS011;10326;53.660;10.200;2022-08-11T15:57:39;1.85;;;1.40;;
20336;SDS011;10326;53.660;10.200;2022-08-11T16:00:27;7.05;;;1.83;;
20336;SDS011;10326;53.660;10.200;2022-08-11T16:03:12;2.13;;;1.10;;
20336;SDS011;10326;53.660;10.200;2022-08-11T16:05:58;2.38;;;1.13;;
20336;SDS011;10326;53.660;10.200;2022-08-11T16:08:26;1.67;;;1.00;;
20336;SDS011;10326;53.660;10.200;2022-08-11T16:10:54;1.75;;;1.17;;
20336;SDS011;10326;53.660;10.200;2022-08-11T16:13:22;2.03;;;1.08;;
20336;SDS011;10326;53.660;10.200;2022-08-11T16:16:09;3.53;;;1.17;;
20336;SDS011;10326;53.660;10.200;2022-08-11T16:18:40;3.20;;;1.20;;
20336;SDS011;10326;53.660;10.200;2022-08-11T16:21:12;2.05;;;1.20;;
20336;SDS011;10326;53.660;10.200;2022-08-11T16:23:44;2.22;;;1.10;;
20336;SDS011;10326;53.660;10.200;2022-08-11T16:26:14;1.33;;;1.17;;
20336;SDS011;10326;53.660;10.200;2022-08-11T16:28:46;3.38;;;1.40;;
20336;SDS011;10326;53.660;10.200;2022-08-11T16:31:17;2.55;;;1.20;;
20336;SDS011;10326;53.660;10.200;2022-08-11T16:33:46;2.40;;;1.20;;
20336;SDS011;10326;53.660;10.200;2022-08-11T16:36:15;3.13;;;1.30;;
20336;SDS011;10326;53.660;10.200;2022-08-11T16:39:01;1.30;;;1.20;;
20336;SDS011;10326;53.660;10.200;2022-08-11T16:41:31;3.53;;;1.25;;
20336;SDS011;10326;53.660;10.200;2022-08-11T16:44:27;4.57;;;1.42;;
20336;SDS011;10326;53.660;10.200;2022-08-11T16:47:17;2.03;;;1.20;;
20336;SDS011;10326;53.660;10.200;2022-08-11T16:49:47;1.45;;;1.15;;
20336;SDS011;10326;53.660;10.200;2022-08-11T16:52:18;3.03;;;1.50;;
20336;SDS011;10326;53.660;10.200;2022-08-11T16:54:46;0.93;;;0.93;;
20336;SDS011;10326;53.660;10.200;2022-08-11T16:57:14;2.20;;;1.17;;